Time;durP1;ratioP1;P1;durP2;ratioP2;P2;SDS_P1;SDS_P2;PMS_P1;PMS_P2;Temp;Humidity;BMP_temperature;BMP_pressure;BME280_temperature;BME280_humidity;BME280_pressure;Samples;Min_cycle;Max_cycle;Signal;HPM_P1;HPM_P2
2023/09/26 00:01:32;;;;;;;;;;;;;;;15.71;59.44;101148.69;4971350;28;6884;-75
2023/09/26 00:03:57;;;;;;;;;;;;;;;15.65;59.46;101155.38;4963239;28;7146;-75
2023/09/26 00:06:24;;;;;;;;;;;;;;;15.63;59.73;101151.84;4937518;28;7205;-75
2023/09/26 00:08:52;;;;;;;;;;;;;;;15.60;59.72;101156.91;4959638;28;7171;-75
2023/09/26 00:11:18;;;;;;;;;;;;;;;15.56;59.48;101165.38;4964453;28;6862;-75
2023/09/26 00:13:44;;;;;;;;;;;;;;;15.52;59.91;101158.28;4926306;28;6808;-75
2023/09/26 00:16:10;;;;;;;;;;;;;;;15.49;59.67;101158.19;4948651;28;6925;-75
2023/09/26 00:18:37;;;;;;;;;;;;;;;15.47;59.71;101159.81;4940751;28;6820;-75
2023/09/26 00:21:02;;;;;;;;;;;;;;;15.44;60.12;101163.16;4978787;28;6962;-75
2023/09/26 00:23:28;;;;;;;;;;;;;;;15.43;59.83;101173.41;4937122;28;6839;-75
2023/09/26 00:25:53;;;;;;;;;;;;;;;15.39;60.16;101167.25;4958469;28;7257;-75
2023/09/26 00:28:19;;;;;;;;;;;;;;;15.36;59.78;101169.72;4939318;28;6955;-75
2023/09/26 00:30:44;;;;;;;;;;;;;;;15.33;59.92;101167.00;4933575;28;6812;-75
2023/09/26 00:33:10;;;;;;;;;;;;;;;15.30;60.71;101172.03;4977289;28;6784;-75
2023/09/26 00:35:35;;;;;;;;;;;;;;;15.32;60.73;101180.75;4960409;28;7177;-75
2023/09/26 00:38:01;;;;;;;;;;;;;;;15.33;60.71;101174.75;4938278;28;7225;-75
2023/09/26 00:40:26;;;;;;;;;;;;;;;15.29;60.70;101173.75;4952751;28;7873;-75
2023/09/26 00:42:52;;;;;;;;;;;;;;;15.26;60.91;101169.34;4957374;28;7098;-75
2023/09/26 00:45:17;;;;;;;;;;;;;;;15.25;60.38;101164.09;4939915;28;6787;-75
2023/09/26 00:47:44;;;;;;;;;;;;;;;15.23;60.59;101170.91;4961659;28;6937;-75
2023/09/26 00:50:13;;;;;;;;;;;;;;;15.21;60.68;101159.63;4941487;28;7062;-74
2023/09/26 00:52:44;;;;;;;;;;;;;;;15.21;61.14;101157.06;4972191;28;6817;-75
2023/09/26 00:55:10;;;;;;;;;;;;;;;15.18;60.97;101162.97;4964469;28;6804;-83
2023/09/26 00:57:37;;;;;;;;;;;;;;;15.12;61.15;101158.44;4944313;28;6888;-84
2023/09/26 01:00:04;;;;;;;;;;;;;;;15.10;60.81;101154.91;4945016;28;7236;-79
2023/09/26 01:02:30;;;;;;;;;;;;;;;15.09;60.80;101152.25;4940077;28;6986;-79
2023/09/26 01:04:56;;;;;;;;;;;;;;;15.08;60.68;101146.22;4925742;28;7008;-76
2023/09/26 01:07:22;;;;;;;;;;;;;;;15.06;60.62;101150.44;4944096;28;7204;-81
2023/09/26 01:09:48;;;;;;;;;;;;;;;15.03;60.81;101149.44;4978894;28;6812;-86
2023/09/26 01:12:14;;;;;;;;;;;;;;;15.06;61.15;101154.72;4943243;28;7558;-84
2023/09/26 01:14:40;;;;;;;;;;;;;;;15.06;60.84;101154.72;4948002;28;6824;-79
2023/09/26 01:17:06;;;;;;;;;;;;;;;15.06;60.91;101144.41;4965686;28;6796;-77
2023/09/26 01:19:31;;;;;;;;;;;;;;;15.07;61.03;101148.75;4943365;28;7266;-80
2023/09/26 01:21:58;;;;;;;;;;;;;;;15.07;61.15;101146.16;4931126;28;6981;-80
2023/09/26 01:24:23;;;;;;;;;;;;;;;15.04;61.42;101153.78;4944127;28;7169;-79
2023/09/26 01:26:49;;;;;;;;;;;;;;;15.02;61.32;101152.81;4943054;28;7355;-84
2023/09/26 01:29:15;;;;;;;;;;;;;;;15.02;61.16;101142.50;4946525;28;7263;-81
2023/09/26 01:31:41;;;;;;;;;;;;;;;15.02;61.05;101145.06;4941102;28;7274;-84
2023/09/26 01:34:07;;;;;;;;;;;;;;;15.01;61.29;101133.88;4948559;28;6796;-78
2023/09/26 01:36:33;;;;;;;;;;;;;;;14.99;60.94;101135.53;4922074;28;6963;-83
2023/09/26 01:38:58;;;;;;;;;;;;;;;14.97;61.56;101132.00;4923766;28;6941;-83
2023/09/26 01:41:25;;;;;;;;;;;;;;;14.95;61.47;101128.44;4931524;28;7093;-80
2023/09/26 01:43:50;;;;;;;;;;;;;;;14.92;61.26;101129.22;4942696;28;7113;-82
2023/09/26 01:46:18;;;;;;;;;;;;;;;14.91;60.75;101129.16;4974300;28;7010;-79
2023/09/26 01:48:43;;;;;;;;;;;;;;;14.88;61.51;101114.41;4941988;28;7297;-82
2023/09/26 01:51:09;;;;;;;;;;;;;;;14.85;60.90;101117.75;4926579;28;6979;-81
2023/09/26 01:53:35;;;;;;;;;;;;;;;14.83;61.70;101118.53;4935870;28;6808;-77
2023/09/26 01:56:01;;;;;;;;;;;;;;;14.82;61.49;101117.63;4934067;28;6969;-78
2023/09/26 01:58:26;;;;;;;;;;;;;;;14.81;61.40;101121.03;4937771;28;7274;-78
2023/09/26 02:00:52;;;;;;;;;;;;;;;14.82;61.94;101121.88;4973795;28;6834;-77
2023/09/26 02:03:19;;;;;;;;;;;;;;;14.82;61.16;101117.63;4939092;28;7294;-73
2023/09/26 02:05:45;;;;;;;;;;;;;;;14.80;61.68;101108.94;4977052;28;7188;-72
2023/09/26 02:08:10;;;;;;;;;;;;;;;14.79;61.63;101117.50;4934730;28;7240;-73
2023/09/26 02:10:36;;;;;;;;;;;;;;;14.80;60.88;101113.22;4943443;28;7151;-71
2023/09/26 02:13:01;;;;;;;;;;;;;;;14.77;60.73;101119.13;4945914;28;6859;-73
2023/09/26 02:15:27;;;;;;;;;;;;;;;14.74;61.34;101118.13;4955482;28;6816;-72
2023/09/26 02:17:52;;;;;;;;;;;;;;;14.71;61.60;101113.69;4977945;28;6899;-73
2023/09/26 02:20:19;;;;;;;;;;;;;;;14.68;60.89;101114.44;4943402;28;7213;-71
2023/09/26 02:22:47;;;;;;;;;;;;;;;14.67;60.50;101114.34;4962292;28;6837;-70
2023/09/26 02:25:14;;;;;;;;;;;;;;;14.64;61.52;101109.06;4961277;28;6820;-72
2023/09/26 02:27:44;;;;;;;;;;;;;;;14.63;61.11;101104.72;4943072;28;7212;-72
2023/09/26 02:30:11;;;;;;;;;;;;;;;14.58;61.57;101105.44;4937159;28;6872;-72
2023/09/26 02:32:37;;;;;;;;;;;;;;;14.57;61.45;101098.47;4974206;28;7168;-71
2023/09/26 02:35:05;;;;;;;;;;;;;;;14.57;60.67;101092.47;4955553;28;7232;-72
2023/09/26 02:37:30;;;;;;;;;;;;;;;14.55;61.54;101092.38;4935209;28;6976;-72
2023/09/26 02:39:56;;;;;;;;;;;;;;;14.56;61.73;101094.13;4956898;28;6788;-72
2023/09/26 02:42:21;;;;;;;;;;;;;;;14.60;62.23;101099.44;4944533;28;7084;-70
2023/09/26 02:44:47;;;;;;;;;;;;;;;14.64;62.17;101102.22;4943599;28;7171;-71
2023/09/26 02:47:12;;;;;;;;;;;;;;;14.71;62.74;101093.03;4936979;28;7248;-71
2023/09/26 02:49:38;;;;;;;;;;;;;;;14.79;62.13;101093.38;4948765;28;7186;-73
2023/09/26 02:52:03;;;;;;;;;;;;;;;14.84;62.41;101084.16;4939387;28;7007;-71
2023/09/26 02:54:29;;;;;;;;;;;;;;;14.90;62.01;101083.53;4942689;28;6776;-72
2023/09/26 02:56:56;;;;;;;;;;;;;;;14.93;61.76;101081.94;4925877;28;7097;-72
2023/09/26 02:59:21;;;;;;;;;;;;;;;14.94;61.42;101085.41;4943729;28;7003;-72
2023/09/26 03:01:48;;;;;;;;;;;;;;;14.93;61.90;101078.47;4921834;28;7032;-72
2023/09/26 03:04:13;;;;;;;;;;;;;;;14.92;61.38;101077.63;4941356;28;7331;-73
2023/09/26 03:06:38;;;;;;;;;;;;;;;14.93;61.76;101078.47;4926284;28;7125;-72
2023/09/26 03:09:04;;;;;;;;;;;;;;;14.93;61.73;101081.94;4963240;28;6932;-71
2023/09/26 03:11:30;;;;;;;;;;;;;;;14.94;61.55;101081.13;4966428;28;7215;-71
2023/09/26 03:13:55;;;;;;;;;;;;;;;14.92;61.03;101079.28;4960275;28;6961;-71
2023/09/26 03:16:21;;;;;;;;;;;;;;;14.90;61.08;101074.06;4943146;28;6949;-72
2023/09/26 03:18:51;;;;;;;;;;;;;;;14.86;60.79;101067.88;4936708;28;7162;-72
2023/09/26 03:21:17;;;;;;;;;;;;;;;14.83;60.75;101078.09;4936950;28;7322;-72
2023/09/26 03:23:42;;;;;;;;;;;;;;;14.79;61.05;101078.81;4939010;28;7028;-72
2023/09/26 03:26:13;;;;;;;;;;;;;;;14.77;60.93;101076.97;4943092;28;6800;-72
2023/09/26 03:28:39;;;;;;;;;;;;;;;14.73;60.86;101070.78;4942173;28;7146;-71
2023/09/26 03:31:05;;;;;;;;;;;;;;;14.72;61.12;101081.91;4923754;28;7290;-72
2023/09/26 03:33:30;;;;;;;;;;;;;;;14.71;61.35;101077.56;4953725;28;7193;-71
2023/09/26 03:35:59;;;;;;;;;;;;;;;14.69;61.60;101086.94;4941965;28;7119;-71
2023/09/26 03:38:25;;;;;;;;;;;;;;;14.66;60.84;101089.38;4939540;28;7028;-72
2023/09/26 03:41:01;;;;;;;;;;;;;;;14.63;61.63;101087.56;4955894;28;7175;-72
2023/09/26 03:43:27;;;;;;;;;;;;;;;14.60;61.32;101082.25;4945992;28;7032;-72
2023/09/26 03:46:03;;;;;;;;;;;;;;;14.57;60.97;101088.16;4935809;28;7541;-73
2023/09/26 03:48:29;;;;;;;;;;;;;;;14.55;61.63;101081.19;4963649;28;7220;-70
2023/09/26 03:50:55;;;;;;;;;;;;;;;14.56;61.53;101085.53;4961881;28;7255;-72
2023/09/26 03:53:21;;;;;;;;;;;;;;;14.57;61.54;101085.56;4937630;28;7388;-71
2023/09/26 03:55:55;;;;;;;;;;;;;;;14.58;61.92;101084.78;4923603;28;6990;-71
2023/09/26 03:58:21;;;;;;;;;;;;;;;14.57;62.08;101082.13;4961885;28;7295;-71
2023/09/26 04:00:47;;;;;;;;;;;;;;;14.57;61.29;101074.41;4938643;28;7302;-71
2023/09/26 04:03:13;;;;;;;;;;;;;;;14.56;61.59;101072.63;4939447;28;7323;-71
2023/09/26 04:05:39;;;;;;;;;;;;;;;14.57;61.71;101075.25;4958471;28;7150;-71
2023/09/26 04:08:05;;;;;;;;;;;;;;;14.56;61.80;101060.59;4940850;28;6876;-71
2023/09/26 04:10:36;;;;;;;;;;;;;;;14.55;61.84;101064.00;4942661;28;6961;-73
2023/09/26 04:13:03;;;;;;;;;;;;;;;14.57;61.63;101058.91;4945972;28;6979;-71
2023/09/26 04:15:29;;;;;;;;;;;;;;;14.56;62.01;101063.19;4954176;28;6945;-73
2023/09/26 04:17:54;;;;;;;;;;;;;;;14.57;62.24;101064.06;4957635;28;6812;-72
2023/09/26 04:20:20;;;;;;;;;;;;;;;14.57;61.47;101066.66;4943874;28;6812;-72
2023/09/26 04:22:47;;;;;;;;;;;;;;;14.55;62.01;101064.00;4938063;28;7004;-71
2023/09/26 04:25:12;;;;;;;;;;;;;;;14.53;61.22;101062.16;4939992;28;7300;-71
2023/09/26 04:27:38;;;;;;;;;;;;;;;14.50;61.83;101062.94;4943544;28;7326;-71
2023/09/26 04:30:06;;;;;;;;;;;;;;;14.47;61.62;101056.78;4964253;28;6796;-71
2023/09/26 04:32:31;;;;;;;;;;;;;;;14.46;61.87;101061.03;4937303;28;6982;-72
2023/09/26 04:34:57;;;;;;;;;;;;;;;14.45;62.11;101061.84;4928319;28;7256;-72
2023/09/26 04:37:22;;;;;;;;;;;;;;;14.44;61.26;101060.09;4945861;28;7173;-72
2023/09/26 04:39:48;;;;;;;;;;;;;;;14.45;61.74;101056.69;4981538;28;6969;-71
2023/09/26 04:42:13;;;;;;;;;;;;;;;14.45;61.53;101061.84;4927636;28;7001;-72
2023/09/26 04:44:39;;;;;;;;;;;;;;;14.43;61.41;101058.34;4942555;28;6818;-72
2023/09/26 04:47:04;;;;;;;;;;;;;;;14.43;61.85;101059.19;4924898;28;7004;-71
2023/09/26 04:49:30;;;;;;;;;;;;;;;14.40;61.30;101053.06;4924756;28;6971;-71
2023/09/26 04:51:55;;;;;;;;;;;;;;;14.36;61.30;101053.72;4941884;28;6964;-72
2023/09/26 04:54:21;;;;;;;;;;;;;;;14.32;61.46;101049.25;4923804;28;6976;-72
2023/09/26 04:56:46;;;;;;;;;;;;;;;14.28;61.20;101054.25;4927434;28;7389;-71
2023/09/26 04:59:12;;;;;;;;;;;;;;;14.24;60.73;101054.97;4947153;28;6780;-72
2023/09/26 05:01:38;;;;;;;;;;;;;;;14.23;61.42;101057.47;4925853;28;7341;-72
2023/09/26 05:04:04;;;;;;;;;;;;;;;14.23;61.44;101058.34;4943687;28;7130;-71
2023/09/26 05:06:29;;;;;;;;;;;;;;;14.22;61.61;101054.03;4990534;23;6804;-72
2023/09/26 05:08:55;;;;;;;;;;;;;;;14.25;62.47;101056.72;4992986;28;7054;-72
2023/09/26 05:11:20;;;;;;;;;;;;;;;14.26;62.41;101063.63;4993921;28;6827;-72
2023/09/26 05:13:47;;;;;;;;;;;;;;;14.30;61.98;101062.97;4998205;28;6938;-71
2023/09/26 05:16:14;;;;;;;;;;;;;;;14.36;61.76;101062.34;4977996;28;7527;-71
2023/09/26 05:18:39;;;;;;;;;;;;;;;14.42;62.71;101066.88;4977159;28;7065;-71
2023/09/26 05:21:06;;;;;;;;;;;;;;;14.47;61.78;101057.63;4993248;28;6855;-72
2023/09/26 05:23:31;;;;;;;;;;;;;;;14.52;62.80;101051.00;4980350;28;6880;-72
2023/09/26 05:26:08;;;;;;;;;;;;;;;14.57;62.12;101054.63;4978312;28;6799;-70
2023/09/26 05:28:33;;;;;;;;;;;;;;;14.62;62.13;101053.97;4996641;28;6819;-71
2023/09/26 05:30:59;;;;;;;;;;;;;;;14.65;62.33;101047.22;4976693;28;6935;-71
2023/09/26 05:33:24;;;;;;;;;;;;;;;14.71;63.14;101052.63;4994938;28;7189;-73
2023/09/26 05:35:50;;;;;;;;;;;;;;;14.78;63.22;101048.66;4982657;23;6916;-73
2023/09/26 05:38:15;;;;;;;;;;;;;;;14.85;62.60;101047.19;4973222;28;6859;-71
2023/09/26 05:40:40;;;;;;;;;;;;;;;14.91;62.43;101043.97;4974907;28;6807;-72
2023/09/26 05:43:07;;;;;;;;;;;;;;;14.94;62.06;101044.09;4955124;28;6942;-74
2023/09/26 05:45:32;;;;;;;;;;;;;;;14.98;62.24;101040.84;4976045;28;7492;-74
2023/09/26 05:48:00;;;;;;;;;;;;;;;14.99;61.89;101029.69;4973977;28;6811;-72
2023/09/26 05:50:26;;;;;;;;;;;;;;;15.05;62.03;101040.25;4975173;28;6959;-72
2023/09/26 05:52:52;;;;;;;;;;;;;;;15.11;62.79;101044.75;4975395;28;7027;-73
2023/09/26 05:55:17;;;;;;;;;;;;;;;15.17;63.03;101047.59;4959472;28;7003;-73
2023/09/26 05:57:43;;;;;;;;;;;;;;;15.25;62.26;101051.38;4959810;28;7006;-73
2023/09/26 06:00:12;;;;;;;;;;;;;;;15.30;62.38;101038.63;4958618;28;7105;-73
2023/09/26 06:02:38;;;;;;;;;;;;;;;15.38;62.19;101036.34;4975518;28;6939;-72
2023/09/26 06:05:03;;;;;;;;;;;;;;;15.43;62.58;101036.53;4976270;28;6831;-72
2023/09/26 06:07:29;;;;;;;;;;;;;;;15.50;62.33;101041.09;4981331;28;7178;-73
2023/09/26 06:09:54;;;;;;;;;;;;;;;15.56;62.21;101038.75;4982899;28;6967;-73
2023/09/26 06:12:20;;;;;;;;;;;;;;;15.63;62.29;101039.88;4968813;28;6768;-72
2023/09/26 06:14:48;;;;;;;;;;;;;;;15.70;62.03;101044.44;4973427;28;6860;-73
2023/09/26 06:17:14;;;;;;;;;;;;;;;15.75;62.12;101032.56;4976624;28;6960;-72
2023/09/26 06:19:44;;;;;;;;;;;;;;;15.82;61.47;101034.56;4970459;28;6837;-73
2023/09/26 06:22:10;;;;;;;;;;;;;;;15.89;61.60;101037.38;4973688;28;7311;-73
2023/09/26 06:24:35;;;;;;;;;;;;;;;15.94;61.77;101023.81;4959193;28;7010;-72
2023/09/26 06:27:01;;;;;;;;;;;;;;;15.99;61.34;101029.16;4989932;28;7334;-73
2023/09/26 06:29:26;;;;;;;;;;;;;;;16.02;61.23;101026.69;4975413;28;7038;-74
2023/09/26 06:31:52;;;;;;;;;;;;;;;16.07;61.35;101035.47;4977131;23;7375;-74
2023/09/26 06:34:17;;;;;;;;;;;;;;;16.10;61.72;101029.53;4959894;28;7266;-73
2023/09/26 06:36:45;;;;;;;;;;;;;;;16.14;61.14;101040.84;5033139;23;6821;-74
2023/09/26 06:39:11;;;;;;;;;;;;;;;16.20;61.39;101034.19;4975079;28;8507;-73
2023/09/26 06:41:37;;;;;;;;;;;;;;;16.26;61.42;101041.28;4968719;28;7124;-73
2023/09/26 06:44:03;;;;;;;;;;;;;;;16.33;61.22;101038.09;4968900;28;7007;-80
2023/09/26 06:46:28;;;;;;;;;;;;;;;16.40;61.29;101028.81;4973921;28;6964;-83
2023/09/26 06:48:55;;;;;;;;;;;;;;;16.47;61.06;101025.63;4958310;28;6948;-79
2023/09/26 06:51:20;;;;;;;;;;;;;;;16.57;61.17;101031.09;4974135;28;6941;-82
2023/09/26 06:53:47;;;;;;;;;;;;;;;16.66;60.87;101032.31;4971176;28;7118;-79
2023/09/26 06:56:12;;;;;;;;;;;;;;;16.75;61.11;101034.31;4969371;28;7129;-78
2023/09/26 06:58:39;;;;;;;;;;;;;;;16.84;60.86;101028.53;4969575;28;6788;-82
2023/09/26 07:01:14;;;;;;;;;;;;;;;16.94;61.01;101030.59;4980438;28;6975;-84
2023/09/26 07:08:55;;;;;;;;;;;;;;;17.20;60.36;101019.34;4982922;28;7052;-81
2023/09/26 07:11:22;;;;;;;;;;;;;;;17.31;60.65;101020.53;4962339;28;7082;-82
2023/09/26 07:13:50;;;;;;;;;;;;;;;17.43;60.18;101019.16;4970753;28;7164;-82
2023/09/26 07:16:15;;;;;;;;;;;;;;;17.54;60.76;101022.06;4969766;28;7379;-81
2023/09/26 07:18:41;;;;;;;;;;;;;;;17.65;59.84;101023.25;4952864;28;6838;-82
2023/09/26 07:21:07;;;;;;;;;;;;;;;17.77;59.90;101027.91;4970706;28;7169;-82
2023/09/26 07:23:36;;;;;;;;;;;;;;;17.90;60.33;101027.41;4945526;28;6987;-82
2023/09/26 07:26:15;;;;;;;;;;;;;;;18.01;60.08;101019.06;4951131;28;7180;-82
2023/09/26 07:28:44;;;;;;;;;;;;;;;18.14;59.56;101018.56;4957839;28;6918;-82
2023/09/26 07:31:15;;;;;;;;;;;;;;;18.28;59.22;101015.47;4964065;28;7161;-82
2023/09/26 07:33:45;;;;;;;;;;;;;;;18.43;59.44;101023.63;4943975;28;7227;-82
2023/09/26 07:36:11;;;;;;;;;;;;;;;18.59;59.09;101016.25;4956964;28;6990;-82
2023/09/26 07:38:39;;;;;;;;;;;;;;;18.73;58.74;101027.88;4969386;28;7209;-83
2023/09/26 07:41:05;;;;;;;;;;;;;;;18.87;58.26;101016.91;4968676;28;6832;-82
2023/09/26 07:43:34;;;;;;;;;;;;;;;18.99;58.51;101012.00;4959795;28;6954;-82
2023/09/26 07:46:10;;;;;;;;;;;;;;;19.19;58.59;101009.00;4952275;28;7007;-82
2023/09/26 07:48:37;;;;;;;;;;;;;;;19.34;58.30;101013.66;4957517;28;7065;-83
2023/09/26 07:51:05;;;;;;;;;;;;;;;19.47;57.85;101022.59;4954383;28;6835;-82
2023/09/26 07:53:30;;;;;;;;;;;;;;;19.61;57.80;101022.03;4970393;28;8794;-83
2023/09/26 07:55:56;;;;;;;;;;;;;;;19.73;57.29;101026.59;4941912;28;6939;-84
2023/09/26 07:58:22;;;;;;;;;;;;;;;19.83;56.96;101021.59;4953933;28;6797;-84
2023/09/26 08:00:48;;;;;;;;;;;;;;;19.92;56.73;101025.25;4957022;28;7242;-84
2023/09/26 08:03:13;;;;;;;;;;;;;;;20.04;56.65;101028.09;4967968;28;6960;-84
2023/09/26 08:05:39;;;;;;;;;;;;;;;20.10;56.36;101017.81;4965896;28;6957;-84
2023/09/26 08:08:13;;;;;;;;;;;;;;;20.20;56.33;101023.19;4959955;28;6945;-84
2023/09/26 08:10:50;;;;;;;;;;;;;;;20.32;55.61;101032.91;4975506;28;6811;-85
2023/09/26 08:13:39;;;;;;;;;;;;;;;20.38;55.91;101023.53;4968446;28;6996;-85
2023/09/26 08:16:16;;;;;;;;;;;;;;;20.47;55.20;101021.91;4960904;28;6832;-85
2023/09/26 08:18:44;;;;;;;;;;;;;;;20.60;55.32;101029.09;4968122;28;7166;-85
2023/09/26 08:21:28;;;;;;;;;;;;;;;20.70;54.92;101024.03;4950108;28;6822;-83
2023/09/26 08:24:08;;;;;;;;;;;;;;;20.78;54.66;101022.44;4973237;28;7500;-84
2023/09/26 08:26:46;;;;;;;;;;;;;;;20.86;54.33;101017.34;4952553;28;6836;-85
2023/09/26 08:29:19;;;;;;;;;;;;;;;20.93;54.59;101019.22;4958672;28;6971;-85
2023/09/26 08:31:45;;;;;;;;;;;;;;;21.01;54.38;101019.31;4954605;28;7015;-85
2023/09/26 08:34:14;;;;;;;;;;;;;;;21.07;53.60;101011.59;4958149;28;6959;-85
2023/09/26 08:36:46;;;;;;;;;;;;;;;21.12;53.77;101011.66;4972014;28;7009;-84
2023/09/26 08:39:12;;;;;;;;;;;;;;;21.19;54.21;101009.16;4958976;28;6994;-84
2023/09/26 08:41:38;;;;;;;;;;;;;;;21.25;54.21;101000.53;4957593;28;6887;-85
2023/09/26 08:44:04;;;;;;;;;;;;;;;21.32;54.00;100997.16;4958543;28;7410;-85
2023/09/26 08:46:32;;;;;;;;;;;;;;;21.43;54.03;101002.50;4973440;28;7072;-85
2023/09/26 08:49:02;;;;;;;;;;;;;;;21.50;54.39;100996.50;4964965;28;7381;-85
2023/09/26 08:51:28;;;;;;;;;;;;;;;21.58;54.66;100993.97;4998576;23;6991;-85
2023/09/26 08:53:54;;;;;;;;;;;;;;;21.65;54.42;100990.59;4952362;28;7141;-85
2023/09/26 08:56:23;;;;;;;;;;;;;;;21.72;54.68;100985.50;4953682;28;6838;-85
2023/09/26 08:58:52;;;;;;;;;;;;;;;21.77;54.40;100986.41;4951140;28;6861;-85
2023/09/26 09:01:20;;;;;;;;;;;;;;;21.83;54.58;100991.69;4970829;28;7146;-84
2023/09/26 09:03:46;;;;;;;;;;;;;;;21.91;54.03;100991.78;4964607;28;9611;-84
2023/09/26 09:06:19;;;;;;;;;;;;;;;21.95;53.62;100990.97;4973944;28;6986;-82
2023/09/26 09:08:50;;;;;;;;;;;;;;;22.06;53.67;101002.38;4991629;28;6909;-82
2023/09/26 09:11:32;;;;;;;;;;;;;;;22.13;53.93;101011.13;4990162;28;7093;-82
2023/09/26 09:14:06;;;;;;;;;;;;;;;22.23;53.69;101006.00;4976193;28;7151;-82
2023/09/26 09:16:32;;;;;;;;;;;;;;;22.29;53.64;100993.88;5005881;23;7275;-84
2023/09/26 09:18:58;;;;;;;;;;;;;;;22.35;53.26;101000.88;4988255;28;6856;-81
2023/09/26 09:21:31;;;;;;;;;;;;;;;22.42;53.21;100996.63;5007007;28;7006;-83
2023/09/26 09:24:02;;;;;;;;;;;;;;;22.51;52.85;101001.94;4989325;28;6815;-77
2023/09/26 09:26:31;;;;;;;;;;;;;;;22.58;52.72;101003.72;4966260;28;8404;-83
2023/09/26 09:28:59;;;;;;;;;;;;;;;22.65;52.60;100993.34;4982590;28;7070;-83
2023/09/26 09:31:26;;;;;;;;;;;;;;;22.71;52.23;100993.38;4988487;28;7012;-84
2023/09/26 09:33:52;;;;;;;;;;;;;;;22.77;52.20;100988.19;4973310;28;6867;-83
2023/09/26 09:36:20;;;;;;;;;;;;;;;22.84;52.67;100987.38;4987377;28;6779;-78
2023/09/26 09:38:45;;;;;;;;;;;;;;;22.89;51.82;100988.28;5002120;28;6844;-74
2023/09/26 09:41:11;;;;;;;;;;;;;;;22.96;51.50;100985.69;4986938;28;6864;-78
2023/09/26 09:43:37;;;;;;;;;;;;;;;23.01;51.20;100982.22;4988638;28;7241;-80
2023/09/26 09:46:06;;;;;;;;;;;;;;;23.07;51.25;100970.94;4988288;28;9604;-80
2023/09/26 09:48:41;;;;;;;;;;;;;;;23.15;50.61;100971.00;5004512;28;6792;-76
2023/09/26 09:51:10;;;;;;;;;;;;;;;23.28;50.65;100974.59;5004374;28;6811;-79
2023/09/26 09:53:36;;;;;;;;;;;;;;;23.35;50.43;100970.25;4987820;28;6975;-80
2023/09/26 09:56:06;;;;;;;;;;;;;;;23.43;50.74;100968.53;4986132;28;7216;-78
2023/09/26 09:58:33;;;;;;;;;;;;;;;23.51;50.44;100969.41;5005902;28;6928;-75
2023/09/26 10:00:59;;;;;;;;;;;;;;;23.60;49.67;100976.44;4984203;28;6976;-79
2023/09/26 10:03:26;;;;;;;;;;;;;;;23.71;49.76;100974.72;4982950;28;7136;-75
2023/09/26 10:05:52;;;;;;;;;;;;;;;23.82;49.60;100971.25;4966478;28;6788;-76
2023/09/26 10:08:20;;;;;;;;;;;;;;;23.93;49.60;100976.50;4979558;28;6796;-80
2023/09/26 10:10:45;;;;;;;;;;;;;;;24.13;49.05;100968.69;4974633;28;6808;-80
2023/09/26 10:13:12;;;;;;;;;;;;;;;24.55;48.97;100963.44;4958919;28;6872;-73
2023/09/26 10:16:05;;;;;;;;;;;;;;;25.27;47.32;100955.44;4974787;28;6978;-74
2023/09/26 10:18:33;;;;;;;;;;;;;;;26.32;46.99;100956.56;4957113;28;7265;-73
2023/09/26 10:20:58;;;;;;;;;;;;;;;27.64;45.06;100952.47;4973894;28;6968;-72
2023/09/26 10:23:24;;;;;;;;;;;;;;;29.02;43.68;100946.66;4975884;28;6868;-73
2023/09/26 10:25:49;;;;;;;;;;;;;;;30.30;41.15;100944.63;4941239;28;6958;-72
2023/09/26 10:28:16;;;;;;;;;;;;;;;31.43;39.39;100939.75;4958363;28;7167;-74
2023/09/26 10:30:46;;;;;;;;;;;;;;;32.45;37.67;100929.41;4946817;28;6959;-72
2023/09/26 10:33:13;;;;;;;;;;;;;;;33.29;36.09;100927.19;4992453;28;6962;-73
2023/09/26 10:35:43;;;;;;;;;;;;;;;34.05;34.65;100928.63;4961245;28;7323;-72
2023/09/26 10:38:20;;;;;;;;;;;;;;;34.67;33.75;100931.31;4982363;28;6952;-72
2023/09/26 10:40:47;;;;;;;;;;;;;;;35.21;32.54;100927.94;4973775;28;7002;-73
2023/09/26 10:43:12;;;;;;;;;;;;;;;35.54;31.97;100924.59;4970521;28;7914;-74
2023/09/26 10:45:43;;;;;;;;;;;;;;;35.75;31.15;100928.97;4978416;28;6991;-72
2023/09/26 10:48:08;;;;;;;;;;;;;;;36.09;31.14;100932.63;4977775;28;7124;-74
2023/09/26 10:50:34;;;;;;;;;;;;;;;36.36;29.91;100922.31;4979908;28;6791;-73
2023/09/26 10:53:00;;;;;;;;;;;;;;;36.57;29.36;100934.63;4993000;28;6792;-73
2023/09/26 10:55:25;;;;;;;;;;;;;;;36.63;29.50;100927.16;4991747;28;6942;-74
2023/09/26 10:57:51;;;;;;;;;;;;;;;36.82;28.94;100924.31;4992234;28;6856;-73
2023/09/26 11:00:17;;;;;;;;;;;;;;;37.09;28.00;100917.59;4989949;28;7284;-73
2023/09/26 11:02:44;;;;;;;;;;;;;;;37.45;28.15;100919.09;4975731;28;7257;-72
2023/09/26 11:05:14;;;;;;;;;;;;;;;37.70;27.35;100916.81;4975179;28;6810;-73
2023/09/26 11:07:42;;;;;;;;;;;;;;;37.81;27.12;100909.03;4991477;28;6827;-73
2023/09/26 11:10:15;;;;;;;;;;;;;;;37.95;26.82;100908.19;4987656;28;7033;-72
2023/09/26 11:12:41;;;;;;;;;;;;;;;38.01;26.49;100904.31;4975133;28;7283;-71
2023/09/26 11:15:08;;;;;;;;;;;;;;;38.23;26.45;100905.72;4967353;28;6997;-72
2023/09/26 11:17:35;;;;;;;;;;;;;;;38.55;25.92;100903.75;4990594;28;6854;-72
2023/09/26 11:20:00;;;;;;;;;;;;;;;38.77;25.39;100894.34;4963398;28;7076;-72
2023/09/26 11:22:26;;;;;;;;;;;;;;;38.70;25.43;100891.19;4975177;28;6796;-72
2023/09/26 11:25:08;;;;;;;;;;;;;;;38.51;25.20;100896.84;4994371;28;7427;-74
2023/09/26 11:27:42;;;;;;;;;;;;;;;38.46;25.28;100904.28;4993345;28;6887;-74
2023/09/26 11:30:12;;;;;;;;;;;;;;;38.57;25.30;100898.28;4978654;28;6824;-73
2023/09/26 11:32:38;;;;;;;;;;;;;;;38.74;24.93;100897.22;4958018;28;14687;-74
2023/09/26 11:35:04;;;;;;;;;;;;;;;38.96;24.57;100903.91;4955333;28;6792;-74
2023/09/26 11:37:33;;;;;;;;;;;;;;;39.11;24.00;100905.56;4963131;28;7176;-73
2023/09/26 11:39:58;;;;;;;;;;;;;;;39.27;24.22;100904.56;4974466;28;6977;-74
2023/09/26 11:42:24;;;;;;;;;;;;;;;39.43;23.82;100907.13;4971397;28;6796;-74
2023/09/26 11:44:56;;;;;;;;;;;;;;;39.59;23.13;100898.91;4956849;28;6967;-74
2023/09/26 11:47:23;;;;;;;;;;;;;;;39.62;22.85;100896.03;4954594;28;6875;-74
2023/09/26 11:49:49;;;;;;;;;;;;;;;39.61;22.25;100901.47;4949210;28;8060;-74
2023/09/26 11:52:16;;;;;;;;;;;;;;;39.56;22.56;100901.78;4951837;28;6811;-74
2023/09/26 11:54:41;;;;;;;;;;;;;;;39.42;23.02;100898.22;4957332;28;7019;-74
2023/09/26 11:57:07;;;;;;;;;;;;;;;39.26;23.12;100887.66;4968456;28;6792;-74
2023/09/26 11:59:33;;;;;;;;;;;;;;;39.08;23.00;100883.50;4958515;28;6800;-74
2023/09/26 12:02:00;;;;;;;;;;;;;;;38.98;23.24;100897.50;4963540;28;7229;-74
2023/09/26 12:04:26;;;;;;;;;;;;;;;38.92;23.13;100896.97;4966657;28;7280;-74
2023/09/26 12:06:52;;;;;;;;;;;;;;;38.74;23.01;100894.53;4987815;28;6796;-74
2023/09/26 12:09:19;;;;;;;;;;;;;;;38.58;23.17;100892.81;4960722;28;6991;-74
2023/09/26 12:11:51;;;;;;;;;;;;;;;38.33;23.33;100888.97;4975385;28;6800;-73
2023/09/26 12:14:17;;;;;;;;;;;;;;;37.93;23.66;100886.03;4974864;28;7001;-73
2023/09/26 12:16:44;;;;;;;;;;;;;;;37.64;23.97;100881.50;4973656;28;6807;-74
2023/09/26 12:19:10;;;;;;;;;;;;;;;37.22;23.95;100878.53;4989040;28;7297;-73
2023/09/26 12:21:36;;;;;;;;;;;;;;;36.46;24.93;100881.78;4993513;28;6804;-73
2023/09/26 12:24:01;;;;;;;;;;;;;;;35.44;25.76;100886.00;4990678;28;6979;-74
2023/09/26 12:26:28;;;;;;;;;;;;;;;34.33;26.58;100887.53;4989831;28;7215;-73
2023/09/26 12:28:53;;;;;;;;;;;;;;;33.41;27.27;100891.31;4978854;28;6973;-73
2023/09/26 12:31:19;;;;;;;;;;;;;;;32.63;27.59;100881.00;4983189;28;6835;-73
2023/09/26 12:33:44;;;;;;;;;;;;;;;32.07;27.94;100885.59;4954056;28;7247;-73
2023/09/26 12:36:10;;;;;;;;;;;;;;;31.58;29.06;100882.78;4973838;28;6852;-73
2023/09/26 12:38:36;;;;;;;;;;;;;;;31.30;29.08;100889.84;4969885;28;6791;-73
2023/09/26 12:41:01;;;;;;;;;;;;;;;31.04;29.25;100878.22;4967121;28;7788;-73
2023/09/26 12:43:27;;;;;;;;;;;;;;;30.83;30.00;100879.75;4971446;28;6844;-73
2023/09/26 12:45:52;;;;;;;;;;;;;;;30.63;30.03;100877.66;4963049;28;6980;-74
2023/09/26 12:48:19;;;;;;;;;;;;;;;30.54;30.76;100881.44;4947849;28;7050;-73
2023/09/26 12:50:44;;;;;;;;;;;;;;;30.53;31.36;100879.72;4967893;28;6958;-73
2023/09/26 12:53:10;;;;;;;;;;;;;;;30.56;30.80;100879.59;4960187;28;6975;-73